createdAt,value
2017-12-20T00:00:03.869Z,3.70
2017-12-20T00:02:32.008Z,3.60
2017-12-20T00:05:00.932Z,3.60
2017-12-20T00:07:29.877Z,3.60
2017-12-20T00:09:58.032Z,3.60
2017-12-20T00:12:26.178Z,3.50
2017-12-20T00:14:54.333Z,3.60
2017-12-20T00:17:22.469Z,3.60
2017-12-20T00:19:51.399Z,3.60
2017-12-20T00:22:19.557Z,3.60
2017-12-20T00:24:48.465Z,3.60
2017-12-20T00:27:17.381Z,3.50
2017-12-20T00:29:46.284Z,3.60
2017-12-20T00:32:15.189Z,3.70
2017-12-20T00:34:44.099Z,3.60
2017-12-20T00:37:12.272Z,3.60
2017-12-20T00:39:41.197Z,3.70
2017-12-20T00:42:09.324Z,3.70
2017-12-20T00:44:37.469Z,3.60
2017-12-20T00:47:05.596Z,3.60
2017-12-20T00:49:33.741Z,3.50
2017-12-20T00:52:01.889Z,3.50
2017-12-20T00:54:30.033Z,3.60
2017-12-20T00:56:58.169Z,3.60
2017-12-20T00:59:28.577Z,3.60
2017-12-20T01:01:56.701Z,3.60
2017-12-20T01:04:25.605Z,3.30
2017-12-20T01:06:54.547Z,3.40
2017-12-20T01:09:22.678Z,3.40
2017-12-20T01:11:50.824Z,3.40
2017-12-20T01:14:18.953Z,3.50
2017-12-20T01:16:47.890Z,3.60
2017-12-20T01:19:16.038Z,3.60
2017-12-20T01:21:44.166Z,3.60
2017-12-20T01:24:12.317Z,3.60
2017-12-20T01:26:41.243Z,3.50
2017-12-20T01:29:10.141Z,3.40
2017-12-20T01:31:39.057Z,3.40
2017-12-20T01:34:07.978Z,3.50
2017-12-20T01:36:36.104Z,3.50
2017-12-20T01:39:04.256Z,3.60
2017-12-20T01:41:32.413Z,3.60
2017-12-20T01:44:01.342Z,3.40
2017-12-20T01:46:29.461Z,3.40
2017-12-20T01:48:57.611Z,3.40
2017-12-20T01:51:25.734Z,3.40
2017-12-20T01:53:53.885Z,3.40
2017-12-20T01:56:22.005Z,3.50
2017-12-20T01:58:50.138Z,3.60
2017-12-20T02:01:18.276Z,3.50
2017-12-20T02:03:46.410Z,3.60
2017-12-20T02:06:14.564Z,3.60
2017-12-20T02:08:42.694Z,3.60
2017-12-20T02:11:10.844Z,3.50
2017-12-20T02:13:39.745Z,3.60
2017-12-20T02:16:08.664Z,3.60
2017-12-20T02:18:36.809Z,3.60
2017-12-20T02:21:04.981Z,3.60
2017-12-20T02:23:33.112Z,3.60
2017-12-20T02:26:02.024Z,3.60
2017-12-20T02:28:30.923Z,3.50
2017-12-20T02:30:59.839Z,3.50
2017-12-20T02:33:30.657Z,3.60
2017-12-20T02:35:58.808Z,3.60
2017-12-20T02:38:37.712Z,3.60
2017-12-20T02:41:07.363Z,3.60
2017-12-20T02:43:37.453Z,3.60
2017-12-20T02:46:05.578Z,3.60
2017-12-20T02:48:33.718Z,3.50
2017-12-20T02:51:02.616Z,3.40
2017-12-20T02:53:31.913Z,3.50
2017-12-20T02:56:00.053Z,3.50
2017-12-20T02:58:28.199Z,3.60
2017-12-20T03:00:56.330Z,3.50
2017-12-20T03:03:24.476Z,3.60
2017-12-20T03:05:52.618Z,3.60
2017-12-20T03:08:20.773Z,3.60
2017-12-20T03:10:48.900Z,3.60
2017-12-20T03:13:17.050Z,3.50
2017-12-20T03:15:45.173Z,3.50
2017-12-20T03:18:13.338Z,3.60
2017-12-20T03:20:41.457Z,3.60
2017-12-20T03:23:09.591Z,3.40
2017-12-20T03:25:37.728Z,3.30
2017-12-20T03:28:05.853Z,3.30
2017-12-20T03:30:34.003Z,3.30
2017-12-20T03:33:02.898Z,3.20
2017-12-20T03:35:31.038Z,3.20
2017-12-20T03:37:59.194Z,3.20
2017-12-20T03:40:28.092Z,3.30
2017-12-20T03:42:56.272Z,3.30
2017-12-20T03:45:24.402Z,3.30
2017-12-20T03:47:52.556Z,3.40
2017-12-20T03:50:20.676Z,3.30
2017-12-20T03:52:48.840Z,3.30
2017-12-20T03:55:17.746Z,3.30
2017-12-20T03:57:46.670Z,3.40
2017-12-20T04:00:14.797Z,3.40
2017-12-20T04:02:42.940Z,3.30
2017-12-20T04:05:11.082Z,3.40
2017-12-20T04:07:39.255Z,3.20
2017-12-20T04:10:08.106Z,3.20
2017-12-20T04:12:37.005Z,3.30
2017-12-20T04:15:06.835Z,3.30
2017-12-20T04:17:34.993Z,3.20
2017-12-20T04:20:03.128Z,3.40
2017-12-20T04:22:31.267Z,3.20
2017-12-20T04:24:59.418Z,3.30
2017-12-20T04:27:28.361Z,3.40
2017-12-20T04:29:57.272Z,3.50
2017-12-20T04:32:26.178Z,3.50
2017-12-20T04:34:55.097Z,3.50
2017-12-20T04:37:23.977Z,3.60
2017-12-20T04:39:52.882Z,3.70
2017-12-20T04:42:21.780Z,3.60
2017-12-20T04:44:49.915Z,3.60
2017-12-20T04:47:18.814Z,3.50
2017-12-20T04:49:47.802Z,3.50
2017-12-20T04:52:15.957Z,3.50
2017-12-20T04:54:44.092Z,3.60
2017-12-20T04:57:12.213Z,3.60
2017-12-20T04:59:41.302Z,3.50
2017-12-20T05:02:09.429Z,3.60
2017-12-20T05:04:38.354Z,3.50
2017-12-20T05:07:07.241Z,3.40
2017-12-20T05:09:36.170Z,3.50
2017-12-20T05:12:04.294Z,3.50
2017-12-20T05:14:32.525Z,3.60
2017-12-20T05:17:01.426Z,3.70
2017-12-20T05:19:30.342Z,3.50
2017-12-20T05:21:58.505Z,3.50
2017-12-20T05:24:26.644Z,3.60
2017-12-20T05:26:54.809Z,3.70
2017-12-20T05:29:22.974Z,3.60
2017-12-20T05:31:51.897Z,3.70
2017-12-20T05:34:20.059Z,3.70
2017-12-20T05:36:48.210Z,3.80
2017-12-20T05:39:16.374Z,3.80
2017-12-20T05:41:44.534Z,3.90
2017-12-20T05:44:12.668Z,3.80
2017-12-20T05:46:41.005Z,3.80
2017-12-20T05:49:09.945Z,3.80
2017-12-20T05:51:38.085Z,3.80
2017-12-20T05:54:06.981Z,3.90
2017-12-20T05:56:35.131Z,3.80
2017-12-20T05:59:03.294Z,3.90
2017-12-20T06:01:31.415Z,3.90
2017-12-20T06:03:59.577Z,3.80
2017-12-20T06:06:27.735Z,3.80
2017-12-20T06:08:56.677Z,3.70
2017-12-20T06:11:24.833Z,3.70
2017-12-20T06:13:53.840Z,3.70
2017-12-20T06:16:21.982Z,3.80
2017-12-20T06:18:50.132Z,3.70
2017-12-20T06:21:18.283Z,3.80
2017-12-20T06:23:48.024Z,3.80
2017-12-20T06:26:16.145Z,3.80
2017-12-20T06:28:44.289Z,3.80
2017-12-20T06:31:12.435Z,3.80
2017-12-20T06:33:40.597Z,3.80
2017-12-20T06:36:09.510Z,3.80
2017-12-20T06:38:37.657Z,3.80
2017-12-20T06:41:05.852Z,3.80
2017-12-20T06:43:34.029Z,3.80
2017-12-20T06:46:02.167Z,3.80
2017-12-20T06:48:30.324Z,3.80
2017-12-20T06:50:58.457Z,3.80
2017-12-20T06:53:27.376Z,3.70
2017-12-20T06:55:55.516Z,3.70
2017-12-20T06:58:23.665Z,3.80
2017-12-20T07:00:51.823Z,3.80
2017-12-20T07:03:19.977Z,3.80
2017-12-20T07:05:48.098Z,3.80
2017-12-20T07:08:17.037Z,3.80
2017-12-20T07:10:45.198Z,3.80
2017-12-20T07:13:15.287Z,3.60
2017-12-20T07:15:43.426Z,3.60
2017-12-20T07:18:11.569Z,3.70
2017-12-20T07:20:39.708Z,3.70
2017-12-20T07:23:07.849Z,3.90
2017-12-20T07:25:36.001Z,3.90
2017-12-20T07:28:04.138Z,3.90
2017-12-20T07:30:33.053Z,4.00
2017-12-20T07:33:01.194Z,4.00
2017-12-20T07:35:29.351Z,4.00
2017-12-20T07:37:58.250Z,4.00
2017-12-20T07:40:26.411Z,4.00
2017-12-20T07:42:55.329Z,4.00
2017-12-20T07:45:23.468Z,4.00
2017-12-20T07:47:53.128Z,3.90
2017-12-20T07:50:21.272Z,3.90
2017-12-20T07:52:49.416Z,3.90
2017-12-20T07:55:17.548Z,3.90
2017-12-20T07:57:45.778Z,3.90
2017-12-20T08:00:13.921Z,3.90
2017-12-20T08:02:42.833Z,4.00
2017-12-20T08:05:10.990Z,4.00
2017-12-20T08:07:39.149Z,4.00
2017-12-20T08:12:50.011Z,4.10
2017-12-20T08:15:18.944Z,4.00
2017-12-20T08:17:47.848Z,4.10
2017-12-20T08:20:16.752Z,4.10
2017-12-20T08:22:45.672Z,4.10
2017-12-20T08:25:19.814Z,4.20
2017-12-20T08:40:43.725Z,4.20
2017-12-20T08:43:12.650Z,4.20
2017-12-20T08:45:40.784Z,4.20
2017-12-20T08:48:08.941Z,4.10
2017-12-20T08:50:37.087Z,4.10
2017-12-20T08:53:05.993Z,4.20
2017-12-20T08:55:34.904Z,4.20
2017-12-20T08:58:03.064Z,4.20
2017-12-20T09:00:32.082Z,4.20
2017-12-20T09:03:01.003Z,4.40
2017-12-20T09:05:29.130Z,4.30
2017-12-20T09:07:57.285Z,4.40
2017-12-20T09:10:26.357Z,4.40
2017-12-20T09:12:55.289Z,4.40
2017-12-20T09:15:23.450Z,4.40
2017-12-20T09:17:52.356Z,4.40
2017-12-20T09:20:21.271Z,4.30
2017-12-20T09:22:50.165Z,4.20
2017-12-20T09:25:18.359Z,4.20
2017-12-20T09:27:47.241Z,4.30
2017-12-20T09:30:15.405Z,4.30
2017-12-20T09:32:44.250Z,4.30
2017-12-20T09:35:13.171Z,4.30
2017-12-20T09:37:42.060Z,4.40
2017-12-20T09:40:10.977Z,4.40
2017-12-20T09:42:39.101Z,4.40
2017-12-20T09:45:07.246Z,4.50
2017-12-20T09:47:35.408Z,4.60
2017-12-20T09:50:04.297Z,4.60
2017-12-20T09:52:32.445Z,4.60
2017-12-20T09:55:00.573Z,4.60
2017-12-20T09:57:28.728Z,4.50
2017-12-20T09:59:56.856Z,4.40
2017-12-20T10:02:25.052Z,4.40
2017-12-20T10:04:53.196Z,4.50
2017-12-20T10:07:21.328Z,4.50
2017-12-20T10:09:50.817Z,4.60
2017-12-20T10:12:18.949Z,4.60
2017-12-20T10:14:47.084Z,4.60
2017-12-20T10:17:15.221Z,4.60
2017-12-20T10:19:43.388Z,4.60
2017-12-20T10:22:12.317Z,4.60
2017-12-20T10:24:40.453Z,4.60
2017-12-20T10:27:08.587Z,4.40
2017-12-20T10:29:36.744Z,4.50
2017-12-20T10:32:05.929Z,4.40
2017-12-20T10:34:34.060Z,4.40
2017-12-20T10:37:02.186Z,4.50
2017-12-20T10:39:31.246Z,4.60
2017-12-20T10:42:00.129Z,4.50
2017-12-20T10:44:29.020Z,4.40
2017-12-20T10:46:57.161Z,4.40
2017-12-20T10:49:25.292Z,4.40
2017-12-20T10:51:53.522Z,4.70
2017-12-20T10:54:22.402Z,4.50
2017-12-20T10:56:51.329Z,4.50
2017-12-20T10:59:19.452Z,4.40
2017-12-20T11:01:47.665Z,4.50
2017-12-20T11:04:15.780Z,4.60
2017-12-20T11:06:43.930Z,4.80
2017-12-20T11:09:12.058Z,4.80
2017-12-20T11:11:40.206Z,4.60
2017-12-20T11:14:08.356Z,4.80
2017-12-20T11:16:36.495Z,4.70
2017-12-20T11:19:05.401Z,4.80
2017-12-20T11:21:34.314Z,4.80
2017-12-20T11:24:03.201Z,4.90
2017-12-20T11:26:31.345Z,4.80
2017-12-20T11:28:59.505Z,5.00
2017-12-20T11:31:28.406Z,5.00
2017-12-20T11:33:56.527Z,5.00
2017-12-20T11:36:24.684Z,5.00
2017-12-20T11:38:52.798Z,4.80
2017-12-20T11:41:20.951Z,4.90
2017-12-20T11:43:49.076Z,4.90
2017-12-20T11:46:17.213Z,4.90
2017-12-20T11:48:46.220Z,4.80
2017-12-20T11:51:14.356Z,4.90
2017-12-20T11:53:42.523Z,4.90
2017-12-20T11:56:10.649Z,4.70
2017-12-20T11:58:39.561Z,4.80
2017-12-20T12:01:08.453Z,4.90
2017-12-20T12:03:36.642Z,4.90
2017-12-20T12:06:04.766Z,5.00
2017-12-20T12:08:32.902Z,5.00
2017-12-20T12:11:02.167Z,5.00
2017-12-20T12:13:30.288Z,5.00
2017-12-20T12:15:58.426Z,5.00
2017-12-20T12:18:26.536Z,5.10
2017-12-20T12:20:54.684Z,5.10
2017-12-20T12:23:23.596Z,5.30
2017-12-20T12:25:51.736Z,5.20
2017-12-20T12:28:19.853Z,5.30
2017-12-20T12:30:48.753Z,5.20
2017-12-20T12:33:18.333Z,5.30
2017-12-20T12:35:46.496Z,5.30
2017-12-20T12:38:14.641Z,5.30
2017-12-20T12:40:42.791Z,5.30
2017-12-20T12:43:10.929Z,5.30
2017-12-20T12:45:39.812Z,5.40
2017-12-20T12:48:08.722Z,5.20
2017-12-20T12:50:37.614Z,5.30
2017-12-20T12:53:05.767Z,5.30
2017-12-20T12:55:33.893Z,5.20
2017-12-20T12:58:02.812Z,5.30
2017-12-20T13:00:30.942Z,5.30
2017-12-20T13:02:59.094Z,5.30
2017-12-20T13:05:27.216Z,5.40
2017-12-20T13:07:55.433Z,5.40
2017-12-20T13:10:23.565Z,5.40
2017-12-20T13:12:51.733Z,5.40
2017-12-20T13:15:19.860Z,5.40
2017-12-20T13:17:47.994Z,5.40
2017-12-20T13:20:16.883Z,5.40
2017-12-20T13:22:45.022Z,5.40
2017-12-20T13:25:13.152Z,5.50
2017-12-20T13:27:42.797Z,5.40
2017-12-20T13:30:11.694Z,5.40
2017-12-20T13:32:40.613Z,5.30
2017-12-20T13:35:09.521Z,5.40
2017-12-20T13:37:38.414Z,5.40
2017-12-20T13:40:06.565Z,5.40
2017-12-20T13:42:34.679Z,5.40
2017-12-20T13:45:03.601Z,5.30
2017-12-20T13:47:31.704Z,5.30
2017-12-20T13:50:00.147Z,5.30
2017-12-20T13:52:28.407Z,5.40
2017-12-20T13:54:56.660Z,5.40
2017-12-20T13:57:24.753Z,5.40
2017-12-20T13:59:52.885Z,5.40
2017-12-20T14:02:21.137Z,5.40
2017-12-20T14:04:49.268Z,5.40
2017-12-20T14:07:18.191Z,5.50
2017-12-20T14:09:47.087Z,5.50
2017-12-20T14:12:16.011Z,5.50
2017-12-20T14:14:44.213Z,5.50
2017-12-20T14:17:12.378Z,5.40
2017-12-20T14:19:40.541Z,5.40
2017-12-20T14:22:09.442Z,5.40
2017-12-20T14:24:38.354Z,5.40
2017-12-20T14:27:07.266Z,5.50
2017-12-20T14:29:36.509Z,5.50
2017-12-20T14:32:04.645Z,5.40
2017-12-20T14:34:32.817Z,5.40
2017-12-20T14:37:00.994Z,5.40
2017-12-20T14:39:29.146Z,5.50
2017-12-20T14:41:57.308Z,5.50
2017-12-20T14:44:26.267Z,5.30
2017-12-20T14:46:54.383Z,5.30
2017-12-20T14:49:23.433Z,5.40
2017-12-20T14:51:51.574Z,5.40
2017-12-20T14:54:19.730Z,5.50
2017-12-20T14:56:47.858Z,5.50
2017-12-20T14:59:16.778Z,5.20
2017-12-20T15:01:44.922Z,5.20
2017-12-20T15:04:13.066Z,5.30
2017-12-20T15:06:41.208Z,5.40
2017-12-20T15:09:10.127Z,5.40
2017-12-20T15:11:39.597Z,5.30
2017-12-20T15:14:07.729Z,5.30
2017-12-20T15:16:36.670Z,5.40
2017-12-20T15:19:04.791Z,5.40
2017-12-20T15:21:34.671Z,5.40
2017-12-20T15:24:02.821Z,5.40
2017-12-20T15:26:31.772Z,5.40
2017-12-20T15:28:59.925Z,5.40
2017-12-20T15:31:28.828Z,5.40
2017-12-20T15:33:57.766Z,5.50
2017-12-20T15:36:26.756Z,5.50
2017-12-20T15:38:55.649Z,5.40
2017-12-20T15:41:23.789Z,5.40
2017-12-20T15:43:51.944Z,5.40
2017-12-20T15:46:20.103Z,5.40
2017-12-20T15:48:48.287Z,5.40
2017-12-20T15:51:16.410Z,5.40
2017-12-20T15:53:44.571Z,5.40
2017-12-20T15:56:12.741Z,5.30
2017-12-20T15:58:40.881Z,5.20
2017-12-20T16:01:09.055Z,5.10
2017-12-20T16:03:37.178Z,5.10
2017-12-20T16:06:05.357Z,5.20
2017-12-20T16:08:33.530Z,5.30
2017-12-20T16:11:02.629Z,5.20
2017-12-20T16:13:30.769Z,5.30
2017-12-20T16:15:58.932Z,5.30
2017-12-20T16:18:27.076Z,5.40
2017-12-20T16:20:55.227Z,5.40
2017-12-20T16:23:24.119Z,5.30
2017-12-20T16:25:53.067Z,5.40
2017-12-20T16:28:21.198Z,5.30
2017-12-20T16:30:49.430Z,5.20
2017-12-20T16:33:17.590Z,5.30
2017-12-20T16:35:45.731Z,5.30
2017-12-20T16:38:13.872Z,5.30
2017-12-20T16:40:42.816Z,5.20
2017-12-20T16:43:10.970Z,5.20
2017-12-20T16:45:39.122Z,5.20
2017-12-20T16:48:07.254Z,5.30
2017-12-20T16:50:35.412Z,5.20
2017-12-20T16:53:04.326Z,5.30
2017-12-20T16:55:33.265Z,5.30
2017-12-20T16:58:01.419Z,5.30
2017-12-20T17:00:30.344Z,5.30
2017-12-20T17:02:58.487Z,5.30
2017-12-20T17:05:27.402Z,5.40
2017-12-20T17:07:56.314Z,5.40
2017-12-20T17:10:25.033Z,5.40
2017-12-20T17:12:55.196Z,5.40
2017-12-20T17:15:24.124Z,5.40
2017-12-20T17:17:52.265Z,5.40
2017-12-20T17:20:20.435Z,5.40
2017-12-20T17:22:48.729Z,5.30
2017-12-20T17:25:16.865Z,5.40
2017-12-20T17:27:45.032Z,5.40
2017-12-20T17:30:13.193Z,5.40
2017-12-20T17:32:41.325Z,5.40
2017-12-20T17:35:09.480Z,5.40
2017-12-20T17:37:37.640Z,5.30
2017-12-20T17:40:06.547Z,5.30
2017-12-20T17:42:34.721Z,5.30
2017-12-20T17:45:02.887Z,5.30
2017-12-20T17:47:31.035Z,5.30
2017-12-20T17:49:59.205Z,5.40
2017-12-20T17:52:27.344Z,5.30
2017-12-20T17:54:56.254Z,5.20
2017-12-20T17:57:25.216Z,5.30
2017-12-20T17:59:53.377Z,5.30
2017-12-20T18:02:21.556Z,5.30
2017-12-20T18:04:49.714Z,5.40
2017-12-20T18:07:18.751Z,5.40
2017-12-20T18:09:46.949Z,5.30
2017-12-20T18:12:15.100Z,5.40
2017-12-20T18:14:44.029Z,5.30
2017-12-20T18:17:12.186Z,5.30
2017-12-20T18:19:40.311Z,5.30
2017-12-20T18:22:08.476Z,5.30
2017-12-20T18:24:36.630Z,5.40
2017-12-20T18:27:04.801Z,5.40
2017-12-20T18:29:32.948Z,5.30
2017-12-20T18:32:01.081Z,5.40
2017-12-20T18:34:29.241Z,5.40
2017-12-20T18:36:57.366Z,5.30
2017-12-20T18:39:26.299Z,5.20
2017-12-20T18:41:54.445Z,5.20
2017-12-20T18:44:22.608Z,5.20
2017-12-20T18:46:50.741Z,5.20
2017-12-20T18:49:19.663Z,5.10
2017-12-20T18:51:47.821Z,5.10
2017-12-20T18:54:15.974Z,5.00
2017-12-20T18:56:44.132Z,5.00
2017-12-20T18:59:12.794Z,5.10
2017-12-20T19:01:40.933Z,5.10
2017-12-20T19:04:09.073Z,5.00
2017-12-20T19:06:38.013Z,5.00
2017-12-20T19:09:06.173Z,5.00
2017-12-20T19:11:35.085Z,5.10
2017-12-20T19:14:03.232Z,5.10
2017-12-20T19:16:31.379Z,5.10
2017-12-20T19:19:00.087Z,5.10
2017-12-20T19:21:28.242Z,5.00
2017-12-20T19:23:57.208Z,5.00
2017-12-20T19:26:25.353Z,5.00
2017-12-20T19:28:53.512Z,4.90
2017-12-20T19:31:22.446Z,5.10
2017-12-20T19:33:50.579Z,5.10
2017-12-20T19:36:19.519Z,5.30
2017-12-20T19:38:47.666Z,5.30
2017-12-20T19:41:15.830Z,5.30
2017-12-20T19:43:43.982Z,5.30
2017-12-20T19:46:12.144Z,5.20
2017-12-20T19:48:41.084Z,5.00
2017-12-20T19:51:09.250Z,5.10
2017-12-20T19:53:38.166Z,5.20
2017-12-20T19:56:06.304Z,5.20
2017-12-20T19:58:34.468Z,5.10
2017-12-20T20:01:02.613Z,5.10
2017-12-20T20:03:30.789Z,5.00
2017-12-20T20:05:59.814Z,5.20
2017-12-20T20:08:27.959Z,5.10
2017-12-20T20:10:56.891Z,5.10
2017-12-20T20:13:25.838Z,5.20
2017-12-20T20:15:53.997Z,5.20
2017-12-20T20:18:22.151Z,5.20
2017-12-20T20:20:50.320Z,5.20
2017-12-20T20:23:18.468Z,5.20
2017-12-20T20:25:46.634Z,5.00
2017-12-20T20:28:14.798Z,5.10
2017-12-20T20:30:43.707Z,5.20
2017-12-20T20:33:12.620Z,5.20
2017-12-20T20:35:40.768Z,5.20
2017-12-20T20:38:08.937Z,5.20
2017-12-20T20:40:37.122Z,5.20
2017-12-20T20:43:05.263Z,5.20
2017-12-20T20:45:33.431Z,5.20
2017-12-20T20:48:01.579Z,5.30
2017-12-20T20:50:29.697Z,5.30
2017-12-20T20:52:58.683Z,5.30
2017-12-20T20:55:26.850Z,5.30
2017-12-20T20:57:55.033Z,5.30
2017-12-20T21:00:23.187Z,5.30
2017-12-20T21:02:52.111Z,5.40
2017-12-20T21:05:20.265Z,5.20
2017-12-20T21:07:49.182Z,5.30
2017-12-20T21:10:17.354Z,5.30
2017-12-20T21:12:45.514Z,5.30
2017-12-20T21:15:13.652Z,5.30
2017-12-20T21:17:41.782Z,5.30
2017-12-20T21:20:09.933Z,5.30
2017-12-20T21:22:38.076Z,5.30
2017-12-20T21:25:06.237Z,5.30
2017-12-20T21:27:34.370Z,5.30
2017-12-20T21:30:02.535Z,5.30
2017-12-20T21:32:30.723Z,5.30
2017-12-20T21:34:59.614Z,5.30
2017-12-20T21:37:27.788Z,5.30
2017-12-20T21:39:55.937Z,5.30
2017-12-20T21:42:24.091Z,5.30
2017-12-20T21:44:53.062Z,5.40
2017-12-20T21:47:21.217Z,5.40
2017-12-20T21:49:49.350Z,5.40
2017-12-20T21:52:17.583Z,5.40
2017-12-20T21:54:45.750Z,5.30
2017-12-20T21:57:14.647Z,5.10
2017-12-20T21:59:43.553Z,4.90
2017-12-20T22:02:12.466Z,5.00
2017-12-20T22:04:41.385Z,5.10
2017-12-20T22:07:09.517Z,5.10
2017-12-20T22:09:37.674Z,5.10
2017-12-20T22:12:05.805Z,5.10
2017-12-20T22:14:34.722Z,5.00
2017-12-20T22:17:03.642Z,5.20
2017-12-20T22:19:32.557Z,5.10
2017-12-20T22:22:00.703Z,5.10
2017-12-20T22:24:29.615Z,5.10
2017-12-20T22:26:58.517Z,5.20
2017-12-20T22:29:27.431Z,5.10
2017-12-20T22:31:56.370Z,5.10
2017-12-20T22:34:24.536Z,5.10
2017-12-20T22:36:53.261Z,5.20
2017-12-20T22:39:21.549Z,5.30
2017-12-20T22:41:49.696Z,5.30
2017-12-20T22:44:18.619Z,5.20
2017-12-20T22:46:46.758Z,5.20
2017-12-20T22:49:14.890Z,5.30
2017-12-20T22:51:43.014Z,5.40
2017-12-20T22:54:11.170Z,5.40
2017-12-20T22:56:39.334Z,5.30
2017-12-20T22:59:08.249Z,5.30
2017-12-20T23:01:36.420Z,5.30
2017-12-20T23:04:05.308Z,5.30
2017-12-20T23:06:34.202Z,5.30
2017-12-20T23:09:02.336Z,5.30
2017-12-20T23:11:30.518Z,5.30
2017-12-20T23:13:58.645Z,5.30
2017-12-20T23:16:26.788Z,5.30
2017-12-20T23:18:55.719Z,5.30
2017-12-20T23:21:23.846Z,5.30
2017-12-20T23:23:52.740Z,5.00
2017-12-20T23:26:20.902Z,5.00
2017-12-20T23:28:49.026Z,5.00
2017-12-20T23:31:17.945Z,5.00
2017-12-20T23:33:46.085Z,5.00
2017-12-20T23:36:14.230Z,5.00
2017-12-20T23:38:42.364Z,5.00
2017-12-20T23:41:10.542Z,5.00
2017-12-20T23:43:38.688Z,5.00
2017-12-20T23:46:06.814Z,5.10
2017-12-20T23:48:34.960Z,5.10
2017-12-20T23:51:03.101Z,5.10
2017-12-20T23:53:31.241Z,5.10
2017-12-20T23:56:00.156Z,5.00
2017-12-20T23:58:28.298Z,5.00
